createdAt,value
2023-02-12T00:01:13.307Z,4.33
2023-02-12T00:03:41.066Z,6.70
2023-02-12T00:11:16.067Z,7.63
2023-02-12T00:13:43.462Z,5.80
2023-02-12T00:16:13.718Z,6.05
2023-02-12T00:18:40.727Z,2.17
2023-02-12T00:21:11.473Z,2.55
2023-02-12T00:23:39.565Z,5.90
2023-02-12T00:26:08.652Z,3.10
2023-02-12T00:28:36.274Z,5.90
2023-02-12T00:31:14.403Z,6.28
2023-02-12T00:33:42.159Z,5.23
2023-02-12T00:36:14.694Z,8.38
2023-02-12T00:38:41.688Z,12.37
2023-02-12T00:41:09.205Z,5.68
2023-02-12T00:43:36.197Z,4.20
2023-02-12T00:46:03.564Z,5.65
2023-02-12T00:48:31.392Z,5.68
2023-02-12T00:50:58.344Z,4.13
2023-02-12T00:53:26.039Z,5.30
2023-02-12T00:55:53.770Z,6.40
2023-02-12T00:58:21.945Z,5.03
2023-02-12T01:03:19.568Z,4.25
2023-02-12T01:05:47.105Z,3.70
2023-02-12T01:08:16.261Z,4.60
2023-02-12T01:10:44.588Z,4.43
2023-02-12T01:13:16.389Z,6.63
2023-02-12T01:15:43.432Z,4.97
2023-02-12T01:18:11.380Z,1.88
2023-02-12T01:23:08.680Z,3.70
2023-02-12T01:25:35.915Z,5.30
2023-02-12T01:28:03.481Z,4.28
2023-02-12T01:30:30.273Z,4.00
2023-02-12T01:33:01.127Z,4.83
2023-02-12T01:35:28.606Z,4.50
2023-02-12T01:37:57.457Z,8.18
2023-02-12T01:40:25.610Z,5.30
2023-02-12T01:42:52.929Z,3.72
2023-02-12T01:45:23.008Z,3.92
2023-02-12T01:47:50.046Z,9.00
2023-02-12T01:50:20.734Z,5.20
2023-02-12T01:52:54.156Z,2.87
2023-02-12T01:55:22.661Z,7.93
2023-02-12T01:57:49.813Z,2.13
2023-02-12T02:00:21.449Z,7.97
2023-02-12T02:02:53.714Z,3.00
2023-02-12T02:05:39.252Z,6.07
2023-02-12T02:08:06.703Z,5.43
2023-02-12T02:10:34.168Z,4.65
2023-02-12T02:13:20.538Z,2.78
2023-02-12T02:15:53.515Z,6.50
2023-02-12T02:18:48.243Z,2.10
2023-02-12T02:21:41.930Z,11.43
2023-02-12T02:24:48.440Z,6.13
2023-02-12T02:27:52.455Z,2.28
2023-02-12T02:30:51.364Z,2.20
2023-02-12T02:33:39.944Z,2.83
2023-02-12T02:36:50.827Z,12.13
2023-02-12T02:39:49.001Z,4.87
2023-02-12T02:42:54.928Z,6.27
2023-02-12T02:45:44.156Z,2.70
2023-02-12T02:48:23.877Z,2.60
2023-02-12T02:50:59.978Z,5.90
2023-02-12T02:53:44.206Z,7.97
2023-02-12T02:56:16.221Z,2.97
2023-02-12T02:59:06.367Z,4.70
2023-02-12T03:01:40.392Z,6.13
2023-02-12T03:04:12.853Z,2.90
2023-02-12T03:06:47.749Z,4.97
2023-02-12T03:09:42.583Z,14.37
2023-02-12T03:12:15.652Z,1.93
2023-02-12T03:14:53.372Z,4.17
2023-02-12T03:19:57.765Z,2.57
2023-02-12T03:22:53.651Z,2.10
2023-02-12T03:25:28.766Z,3.27
2023-02-12T03:30:18.887Z,3.53
2023-02-12T03:33:06.026Z,2.78
2023-02-12T03:35:42.564Z,3.97
2023-02-12T03:38:30.837Z,5.10
2023-02-12T03:41:14.204Z,1.47
2023-02-12T03:43:51.778Z,4.07
2023-02-12T03:46:43.464Z,5.80
2023-02-12T03:49:15.853Z,4.23
2023-02-12T03:51:45.490Z,3.63
2023-02-12T03:54:17.377Z,1.03
2023-02-12T03:56:54.325Z,8.50
2023-02-12T03:59:25.931Z,3.28
2023-02-12T04:01:56.195Z,3.53
2023-02-12T04:04:25.168Z,2.57
2023-02-12T04:06:53.870Z,3.20
2023-02-12T04:09:23.122Z,5.03
2023-02-12T04:12:17.150Z,6.53
2023-02-12T04:14:53.606Z,4.13
2023-02-12T04:17:46.970Z,5.93
2023-02-12T04:20:32.373Z,3.20
2023-02-12T04:23:10.593Z,6.87
2023-02-12T04:26:03.379Z,3.57
2023-02-12T04:29:15.703Z,3.10
2023-02-12T04:31:47.946Z,2.90
2023-02-12T04:34:21.016Z,5.37
2023-02-12T04:37:04.653Z,5.13
2023-02-12T04:39:37.331Z,2.43
2023-02-12T04:42:05.294Z,6.87
2023-02-12T04:44:35.939Z,3.70
2023-02-12T04:47:03.549Z,5.93
2023-02-12T04:49:30.754Z,4.47
2023-02-12T04:51:58.227Z,3.53
2023-02-12T04:54:25.948Z,3.03
2023-02-12T04:59:19.594Z,2.63
2023-02-12T05:01:46.794Z,5.47
2023-02-12T05:04:15.888Z,4.18
2023-02-12T05:06:44.096Z,5.70
2023-02-12T05:09:15.539Z,6.70
2023-02-12T05:11:43.082Z,4.60
2023-02-12T05:14:10.749Z,2.38
2023-02-12T05:16:39.238Z,5.38
2023-02-12T05:19:06.409Z,3.97
2023-02-12T05:21:33.528Z,2.60
2023-02-12T05:24:02.679Z,1.77
2023-02-12T05:26:29.757Z,2.00
2023-02-12T05:28:57.397Z,10.85
2023-02-12T05:31:24.721Z,3.65
2023-02-12T05:33:52.481Z,2.47
2023-02-12T05:36:22.142Z,3.67
2023-02-12T05:38:50.084Z,5.13
2023-02-12T05:43:49.817Z,3.60
2023-02-12T05:46:18.495Z,5.60
2023-02-12T05:48:45.963Z,4.17
2023-02-12T05:51:22.180Z,4.00
2023-02-12T05:53:51.400Z,3.67
2023-02-12T05:56:21.736Z,6.17
2023-02-12T05:58:58.072Z,6.20
2023-02-12T06:01:39.518Z,9.33
2023-02-12T06:04:09.525Z,5.70
2023-02-12T06:06:36.819Z,4.67
2023-02-12T06:09:04.380Z,3.67
2023-02-12T06:11:31.531Z,3.60
2023-02-12T06:13:58.701Z,4.53
2023-02-12T06:16:29.412Z,3.45
2023-02-12T06:18:58.007Z,4.67
2023-02-12T06:21:26.906Z,3.43
2023-02-12T06:23:54.213Z,2.23
2023-02-12T06:26:22.232Z,6.55
2023-02-12T06:31:29.808Z,6.18
2023-02-12T06:33:59.199Z,3.27
2023-02-12T06:36:28.872Z,2.37
2023-02-12T06:38:56.401Z,2.53
2023-02-12T06:41:24.170Z,3.30
2023-02-12T06:43:51.456Z,2.75
2023-02-12T06:46:18.676Z,8.73
2023-02-12T06:48:46.026Z,8.35
2023-02-12T06:51:14.832Z,10.85
2023-02-12T06:53:42.376Z,5.93
2023-02-12T06:56:13.434Z,3.53
2023-02-12T06:58:43.095Z,4.95
2023-02-12T07:01:18.092Z,6.30
2023-02-12T07:03:49.927Z,7.00
2023-02-12T07:06:17.081Z,4.22
2023-02-12T07:08:44.139Z,4.03
2023-02-12T07:11:11.867Z,4.20
2023-02-12T07:13:41.078Z,5.45
2023-02-12T07:16:14.271Z,8.73
2023-02-12T07:18:42.361Z,7.25
2023-02-12T07:23:37.146Z,10.35
2023-02-12T07:26:07.147Z,9.55
2023-02-12T07:28:34.987Z,6.80
2023-02-12T07:31:14.166Z,10.55
2023-02-12T07:33:42.344Z,8.20
2023-02-12T07:36:15.108Z,13.43
2023-02-12T07:38:42.858Z,8.02
2023-02-12T07:41:13.018Z,10.38
2023-02-12T07:43:41.851Z,7.70
2023-02-12T07:46:13.945Z,7.35
2023-02-12T07:48:41.206Z,4.70
2023-02-12T07:51:11.281Z,9.73
2023-02-12T07:53:41.178Z,11.63
2023-02-12T08:23:46.661Z,12.95
2023-02-12T08:26:30.742Z,10.63
2023-02-12T08:29:09.054Z,6.40
2023-02-12T08:31:38.861Z,6.75
2023-02-12T08:34:06.436Z,6.80
2023-02-12T08:36:39.207Z,7.80
2023-02-12T08:39:08.528Z,7.68
2023-02-12T08:41:38.434Z,9.23
2023-02-12T08:44:06.263Z,11.75
2023-02-12T08:46:37.794Z,7.70
2023-02-12T08:49:13.147Z,6.45
2023-02-12T08:51:43.494Z,7.82
2023-02-12T08:54:16.047Z,5.57
2023-02-12T08:56:42.847Z,7.88
2023-02-12T08:59:11.730Z,9.15
2023-02-12T09:01:39.494Z,8.40
2023-02-12T09:04:07.138Z,7.35
2023-02-12T09:06:36.055Z,7.00
2023-02-12T09:09:03.579Z,10.00
2023-02-12T09:11:30.931Z,5.20
2023-02-12T09:14:00.601Z,6.57
2023-02-12T09:16:31.434Z,9.30
2023-02-12T09:18:59.170Z,11.45
2023-02-12T09:21:27.245Z,8.60
2023-02-12T09:23:54.681Z,10.25
2023-02-12T09:26:26.004Z,10.13
2023-02-12T09:29:02.796Z,8.60
2023-02-12T09:31:31.950Z,9.55
2023-02-12T09:34:01.777Z,11.13
2023-02-12T09:36:29.352Z,6.90
2023-02-12T09:38:57.566Z,8.68
2023-02-12T09:41:56.332Z,8.02
2023-02-12T09:44:27.919Z,7.88
2023-02-12T09:47:05.589Z,7.78
2023-02-12T09:50:06.033Z,7.80
2023-02-12T09:52:35.693Z,6.03
2023-02-12T09:55:03.586Z,15.73
2023-02-12T09:57:36.745Z,10.30
2023-02-12T10:00:08.625Z,8.27
2023-02-12T10:02:37.653Z,7.60
2023-02-12T10:05:07.233Z,5.72
2023-02-12T10:07:40.033Z,8.35
2023-02-12T10:10:45.696Z,5.45
2023-02-12T10:13:46.272Z,7.97
2023-02-12T10:16:37.297Z,8.50
2023-02-12T10:19:33.906Z,5.63
2023-02-12T10:22:36.272Z,5.88
2023-02-12T10:25:09.244Z,11.85
2023-02-12T10:27:52.276Z,8.90
2023-02-12T10:30:25.349Z,8.50
2023-02-12T10:32:59.173Z,7.68
2023-02-12T10:35:26.725Z,7.75
2023-02-12T10:38:01.323Z,10.90
2023-02-12T10:40:34.919Z,7.60
2023-02-12T10:43:03.192Z,7.18
2023-02-12T10:45:38.577Z,7.70
2023-02-12T10:48:22.328Z,8.95
2023-02-12T10:51:08.944Z,10.52
2023-02-12T10:53:46.435Z,9.25
2023-02-12T10:56:13.576Z,9.27
2023-02-12T10:58:54.489Z,6.93
2023-02-12T11:01:26.612Z,9.75
2023-02-12T11:03:56.569Z,6.97
2023-02-12T11:06:28.160Z,11.95
2023-02-12T11:08:56.406Z,8.10
2023-02-12T11:11:38.921Z,13.32
2023-02-12T11:14:17.170Z,6.97
2023-02-12T11:16:53.993Z,9.45
2023-02-12T11:19:28.060Z,8.05
2023-02-12T11:22:11.544Z,7.00
2023-02-12T11:24:39.422Z,12.15
2023-02-12T11:27:22.025Z,10.25
2023-02-12T11:30:11.114Z,7.25
2023-02-12T11:32:38.072Z,7.10
2023-02-12T11:35:35.308Z,8.18
2023-02-12T11:38:06.664Z,9.18
2023-02-12T11:40:34.328Z,6.22
2023-02-12T11:43:06.336Z,9.07
2023-02-12T11:45:42.160Z,6.68
2023-02-12T11:48:22.779Z,8.55
2023-02-12T11:50:53.052Z,11.55
2023-02-12T11:53:27.974Z,10.73
2023-02-12T11:55:59.020Z,7.60
2023-02-12T11:58:29.660Z,12.88
2023-02-12T12:01:12.227Z,9.07
2023-02-12T12:03:58.160Z,8.85
2023-02-12T12:06:42.085Z,12.13
2023-02-12T12:09:29.570Z,11.23
2023-02-12T12:12:11.949Z,7.20
2023-02-12T12:15:13.723Z,13.82
2023-02-12T12:18:08.052Z,12.82
2023-02-12T12:20:57.611Z,8.00
2023-02-12T12:23:52.356Z,8.48
2023-02-12T12:26:26.092Z,8.55
2023-02-12T12:29:12.444Z,8.25
2023-02-12T12:31:44.178Z,11.25
2023-02-12T12:34:17.439Z,6.68
2023-02-12T12:37:03.305Z,9.65
2023-02-12T12:39:58.036Z,8.85
2023-02-12T12:43:02.532Z,9.75
2023-02-12T12:45:51.366Z,10.23
2023-02-12T12:48:36.457Z,11.52
2023-02-12T12:51:21.981Z,9.95
2023-02-12T12:54:00.428Z,13.82
2023-02-12T12:56:43.945Z,9.32
2023-02-12T12:59:42.281Z,8.57
2023-02-12T13:02:27.538Z,10.23
2023-02-12T13:05:22.275Z,8.90
2023-02-12T13:08:38.307Z,10.15
2023-02-12T13:11:08.263Z,8.82
2023-02-12T13:13:42.184Z,7.68
2023-02-12T13:16:31.971Z,10.93
2023-02-12T13:19:07.625Z,7.85
2023-02-12T13:22:05.890Z,9.60
2023-02-12T13:25:01.494Z,7.32
2023-02-12T13:27:34.916Z,7.45
2023-02-12T13:30:26.823Z,8.13
2023-02-12T13:33:02.548Z,7.13
2023-02-12T13:35:31.927Z,6.45
2023-02-12T13:38:01.064Z,8.73
2023-02-12T13:40:30.693Z,7.72
2023-02-12T13:43:34.150Z,9.25
2023-02-12T13:46:03.816Z,11.57
2023-02-12T13:48:55.598Z,6.55
2023-02-12T13:52:08.959Z,9.07
2023-02-12T13:54:54.901Z,8.02
2023-02-12T13:57:22.308Z,11.13
2023-02-12T13:59:54.542Z,6.47
2023-02-12T14:02:33.408Z,10.10
2023-02-12T14:05:00.697Z,9.02
2023-02-12T14:07:46.735Z,6.00
2023-02-12T14:10:25.217Z,9.65
2023-02-12T14:12:53.932Z,4.93
2023-02-12T14:16:52.763Z,10.25
2023-02-12T14:19:57.602Z,6.90
2023-02-12T14:22:27.573Z,6.35
2023-02-12T14:24:56.671Z,11.15
2023-02-12T14:27:44.762Z,7.50
2023-02-12T14:30:11.704Z,7.45
2023-02-12T14:32:53.478Z,8.05
2023-02-12T14:35:26.384Z,9.73
2023-02-12T14:37:54.745Z,11.10
2023-02-12T14:40:47.066Z,7.85
2023-02-12T14:43:55.246Z,6.57
2023-02-12T14:46:25.040Z,9.88
2023-02-12T14:49:05.026Z,8.63
2023-02-12T14:51:54.524Z,7.78
2023-02-12T14:54:43.062Z,6.55
2023-02-12T14:57:26.170Z,7.43
2023-02-12T14:59:58.704Z,8.98
2023-02-12T15:02:29.354Z,8.32
2023-02-12T15:05:13.078Z,9.00
2023-02-12T15:07:56.153Z,6.00
2023-02-12T15:10:28.883Z,7.93
2023-02-12T15:13:19.991Z,10.20
2023-02-12T15:15:56.207Z,7.38
2023-02-12T15:18:31.091Z,6.60
2023-02-12T15:21:23.746Z,7.85
2023-02-12T15:24:07.569Z,11.40
2023-02-12T15:27:44.597Z,8.55
2023-02-12T15:40:07.603Z,8.48
2023-02-12T15:45:32.104Z,9.10
2023-02-12T15:48:02.259Z,10.27
2023-02-12T15:50:48.027Z,11.10
2023-02-12T15:53:19.487Z,10.20
2023-02-12T15:55:49.162Z,12.93
2023-02-12T16:01:21.945Z,12.00
2023-02-12T16:04:34.491Z,9.60
2023-02-12T16:07:02.643Z,7.10
2023-02-12T16:09:41.100Z,9.52
2023-02-12T16:12:15.013Z,8.55
2023-02-12T16:14:49.184Z,10.30
2023-02-12T16:17:25.307Z,7.55
2023-02-12T16:20:05.350Z,6.20
2023-02-12T16:22:44.346Z,12.23
2023-02-12T16:25:36.337Z,11.38
2023-02-12T16:28:18.119Z,12.68
2023-02-12T16:30:48.766Z,10.98
2023-02-12T16:33:53.350Z,10.88
2023-02-12T16:36:20.401Z,12.18
2023-02-12T16:39:03.127Z,13.33
2023-02-12T16:41:32.558Z,18.77
2023-02-12T16:44:02.742Z,15.02
2023-02-12T16:46:33.259Z,16.02
2023-02-12T16:49:02.198Z,13.63
2023-02-12T16:51:37.601Z,13.63
2023-02-12T16:54:24.542Z,12.57
2023-02-12T16:56:52.039Z,8.18
2023-02-12T16:59:19.830Z,8.75
2023-02-12T17:02:07.320Z,7.32
2023-02-12T17:04:34.671Z,9.18
2023-02-12T17:07:01.733Z,9.40
2023-02-12T17:09:32.584Z,9.45
2023-02-12T17:11:59.768Z,8.98
2023-02-12T17:14:43.091Z,10.43
2023-02-12T17:17:39.297Z,10.20
2023-02-12T17:20:46.217Z,13.90
2023-02-12T17:27:11.896Z,8.00
2023-02-12T17:29:39.116Z,11.75
2023-02-12T17:32:06.609Z,9.93
2023-02-12T17:34:48.549Z,10.77
2023-02-12T17:37:18.453Z,8.98
2023-02-12T17:39:47.568Z,13.07
2023-02-12T17:42:14.841Z,14.90
2023-02-12T17:44:41.811Z,15.40
2023-02-12T17:53:46.955Z,11.18
2023-02-12T17:56:17.006Z,12.50
2023-02-12T17:58:44.932Z,14.30
2023-02-12T18:01:42.350Z,14.35
2023-02-12T18:08:07.658Z,13.55
2023-02-12T18:11:30.553Z,12.73
2023-02-12T18:13:57.994Z,11.93
2023-02-12T18:16:27.218Z,14.38
2023-02-12T18:18:54.407Z,10.82
2023-02-12T18:21:21.572Z,12.00
2023-02-12T18:23:49.219Z,11.40
2023-02-12T18:26:19.006Z,6.47
2023-02-12T18:28:46.249Z,11.32
2023-02-12T18:31:14.128Z,12.93
2023-02-12T18:36:15.121Z,13.68
2023-02-12T18:38:43.928Z,10.90
2023-02-12T18:41:29.561Z,12.15
2023-02-12T18:44:03.417Z,15.35
2023-02-12T18:46:32.165Z,12.43
2023-02-12T18:49:00.894Z,12.63
2023-02-12T18:51:31.218Z,12.65
2023-02-12T18:54:02.113Z,13.27
2023-02-12T18:56:30.624Z,12.77
2023-02-12T18:58:59.777Z,8.13
2023-02-12T19:01:28.722Z,15.63
2023-02-12T19:03:59.184Z,14.95
2023-02-12T19:06:28.047Z,13.35
2023-02-12T19:09:03.392Z,16.77
2023-02-12T19:11:34.657Z,10.02
2023-02-12T19:14:02.382Z,9.20
2023-02-12T19:16:29.531Z,11.57
2023-02-12T19:19:02.944Z,10.35
2023-02-12T19:21:31.463Z,12.60
2023-02-12T19:24:03.248Z,11.20
2023-02-12T19:26:32.596Z,7.78
2023-02-12T19:29:00.098Z,8.63
2023-02-12T19:31:31.065Z,10.82
2023-02-12T19:34:00.724Z,16.13
2023-02-12T19:36:41.412Z,10.85
2023-02-12T19:42:49.782Z,12.90
2023-02-12T19:48:55.942Z,14.43
2023-02-12T19:51:59.651Z,9.88
2023-02-12T19:54:36.949Z,12.45
2023-02-12T19:57:09.856Z,14.98
2023-02-12T19:59:38.597Z,10.07
2023-02-12T20:02:09.518Z,11.10
2023-02-12T20:08:09.346Z,8.02
2023-02-12T20:10:56.093Z,11.18
2023-02-12T20:24:42.575Z,6.60
2023-02-12T20:27:16.088Z,9.00
2023-02-12T20:29:44.475Z,10.10
2023-02-12T20:32:13.664Z,11.75
2023-02-12T20:34:50.513Z,8.00
2023-02-12T20:37:28.878Z,11.13
2023-02-12T20:39:57.294Z,10.38
2023-02-12T20:42:34.461Z,10.70
2023-02-12T20:45:01.698Z,11.38
2023-02-12T20:47:29.213Z,11.20
2023-02-12T20:50:00.884Z,15.00
2023-02-12T20:52:34.835Z,13.23
2023-02-12T20:55:09.910Z,10.75
2023-02-12T21:01:52.987Z,4.80
2023-02-12T21:04:23.726Z,8.45
2023-02-12T21:07:11.049Z,7.30
2023-02-12T21:09:39.327Z,7.63
2023-02-12T21:12:07.269Z,7.88
2023-02-12T21:17:09.503Z,8.63
2023-02-12T21:23:23.643Z,8.15
2023-02-12T21:28:35.413Z,8.32
2023-02-12T21:31:13.667Z,7.40
2023-02-12T21:33:42.343Z,8.77
2023-02-12T21:43:28.994Z,6.53
2023-02-12T21:50:31.503Z,6.65
2023-02-12T21:53:00.810Z,11.60
2023-02-12T21:58:39.309Z,10.93
2023-02-12T22:01:18.849Z,10.02
2023-02-12T22:07:01.733Z,9.73
2023-02-12T22:09:35.374Z,6.72
2023-02-12T22:12:02.487Z,9.05
2023-02-12T22:14:29.506Z,10.80
2023-02-12T22:16:56.398Z,12.40
2023-02-12T22:19:31.381Z,14.68
2023-02-12T22:21:58.420Z,10.07
2023-02-12T22:24:28.742Z,9.27
2023-02-12T22:26:56.023Z,11.65
2023-02-12T22:29:23.969Z,14.27
2023-02-12T22:34:23.802Z,13.27
2023-02-12T22:36:51.498Z,10.35
2023-02-12T22:39:19.294Z,11.32
2023-02-12T22:41:46.532Z,12.23
2023-02-12T22:44:15.040Z,13.50
2023-02-12T22:46:43.235Z,13.38
2023-02-12T22:49:10.977Z,9.65
2023-02-12T22:51:40.358Z,12.40
2023-02-12T22:54:13.416Z,13.07
2023-02-12T22:56:44.297Z,12.43
2023-02-12T23:02:56.827Z,10.73
2023-02-12T23:08:10.081Z,12.90
2023-02-12T23:10:38.165Z,16.05
2023-02-12T23:15:32.247Z,12.65
2023-02-12T23:17:59.908Z,14.27
2023-02-12T23:20:27.234Z,9.27
2023-02-12T23:22:54.886Z,9.82
2023-02-12T23:27:49.414Z,9.05
2023-02-12T23:30:16.975Z,9.93
2023-02-12T23:32:47.630Z,14.35
2023-02-12T23:35:15.170Z,14.63
2023-02-12T23:37:43.327Z,9.95
2023-02-12T23:40:11.295Z,12.18
2023-02-12T23:42:38.505Z,12.88
2023-02-12T23:45:07.556Z,12.18
2023-02-12T23:47:35.141Z,11.13
2023-02-12T23:50:02.225Z,14.73
2023-02-12T23:52:29.279Z,17.05
2023-02-12T23:54:57.018Z,9.95
2023-02-12T23:57:24.443Z,8.82
2023-02-12T23:59:51.689Z,10.27
